createdAt,value
2017-08-17T00:00:25.777Z,58.06
2017-08-17T00:01:26.442Z,58.15
2017-08-17T00:02:27.059Z,58.25
2017-08-17T00:03:27.681Z,58.34
2017-08-17T00:04:28.295Z,58.34
2017-08-17T00:05:28.944Z,57.97
2017-08-17T00:06:29.561Z,57.68
2017-08-17T00:07:30.176Z,57.97
2017-08-17T00:08:30.792Z,57.97
2017-08-17T00:09:31.414Z,57.68
2017-08-17T00:10:32.031Z,57.87
2017-08-17T00:11:32.647Z,58.06
2017-08-17T00:12:33.263Z,57.97
2017-08-17T00:13:33.879Z,58.44
2017-08-17T00:14:34.496Z,58.34
2017-08-17T00:15:35.113Z,58.25
2017-08-17T00:16:35.729Z,58.54
2017-08-17T00:17:36.345Z,58.34
2017-08-17T00:18:36.967Z,58.54
2017-08-17T00:19:37.579Z,58.25
2017-08-17T00:20:38.195Z,58.34
2017-08-17T00:21:38.845Z,58.44
2017-08-17T00:22:39.461Z,58.83
2017-08-17T00:23:40.089Z,58.83
2017-08-17T00:24:40.709Z,58.83
2017-08-17T00:25:41.323Z,58.63
2017-08-17T00:26:42.241Z,59.20
2017-08-17T00:27:42.861Z,58.92
2017-08-17T00:28:43.475Z,58.92
2017-08-17T00:29:44.090Z,59.11
2017-08-17T00:30:44.706Z,58.70
2017-08-17T00:31:45.356Z,58.80
2017-08-17T00:32:45.970Z,58.63
2017-08-17T00:33:46.585Z,58.54
2017-08-17T00:34:47.203Z,59.08
2017-08-17T00:35:47.826Z,58.61
2017-08-17T00:36:48.438Z,59.37
2017-08-17T00:37:49.055Z,58.80
2017-08-17T00:38:49.670Z,59.01
2017-08-17T00:39:50.301Z,58.70
2017-08-17T00:40:50.905Z,58.98
2017-08-17T00:41:51.580Z,58.98
2017-08-17T00:42:52.188Z,58.98
2017-08-17T00:43:52.838Z,58.98
2017-08-17T00:44:53.454Z,59.08
2017-08-17T00:45:54.072Z,59.08
2017-08-17T00:46:54.691Z,58.92
2017-08-17T00:47:55.309Z,59.27
2017-08-17T00:48:55.923Z,59.20
2017-08-17T00:49:56.545Z,59.20
2017-08-17T00:50:57.160Z,59.01
2017-08-17T00:51:57.776Z,58.92
2017-08-17T00:52:58.392Z,59.01
2017-08-17T00:53:59.008Z,59.30
2017-08-17T00:54:59.623Z,58.89
2017-08-17T00:56:00.239Z,59.20
2017-08-17T00:57:00.906Z,59.47
2017-08-17T00:58:01.528Z,59.59
2017-08-17T00:59:02.178Z,59.37
2017-08-17T01:00:02.805Z,59.47
2017-08-17T01:01:03.411Z,59.56
2017-08-17T01:02:04.025Z,59.56
2017-08-17T01:03:04.641Z,59.59
2017-08-17T01:04:05.258Z,59.59
2017-08-17T01:05:05.881Z,59.69
2017-08-17T01:06:06.498Z,59.49
2017-08-17T01:07:07.112Z,59.49
2017-08-17T01:08:07.734Z,59.66
2017-08-17T01:09:08.347Z,59.69
2017-08-17T01:10:08.970Z,59.49
2017-08-17T01:11:09.584Z,59.49
2017-08-17T01:12:10.198Z,59.84
2017-08-17T01:13:10.819Z,59.94
2017-08-17T01:14:11.438Z,59.97
2017-08-17T01:15:12.050Z,59.84
2017-08-17T01:16:12.666Z,59.97
2017-08-17T01:17:13.615Z,59.75
2017-08-17T01:18:14.236Z,59.56
2017-08-17T01:19:14.851Z,59.66
2017-08-17T01:20:15.468Z,59.84
2017-08-17T01:21:16.090Z,59.94
2017-08-17T01:22:16.708Z,60.23
2017-08-17T01:23:17.322Z,60.23
2017-08-17T01:24:17.936Z,60.33
2017-08-17T01:25:18.592Z,60.23
2017-08-17T01:26:19.205Z,60.33
2017-08-17T01:27:19.823Z,60.33
2017-08-17T01:28:20.445Z,59.66
2017-08-17T01:29:21.068Z,60.13
2017-08-17T01:30:21.714Z,60.23
2017-08-17T01:31:22.366Z,60.33
2017-08-17T01:32:22.981Z,60.33
2017-08-17T01:33:23.602Z,60.33
2017-08-17T01:34:24.217Z,59.94
2017-08-17T01:35:24.835Z,60.52
2017-08-17T01:36:25.457Z,60.33
2017-08-17T01:37:26.120Z,60.61
2017-08-17T01:38:26.768Z,60.71
2017-08-17T01:39:27.384Z,60.52
2017-08-17T01:40:28.000Z,60.71
2017-08-17T01:41:28.620Z,60.61
2017-08-17T01:42:29.270Z,60.42
2017-08-17T01:43:29.892Z,60.80
2017-08-17T01:44:30.507Z,60.80
2017-08-17T01:45:31.122Z,61.09
2017-08-17T01:46:31.772Z,61.09
2017-08-17T01:47:32.687Z,61.25
2017-08-17T01:48:33.304Z,60.87
2017-08-17T01:49:33.953Z,61.06
2017-08-17T01:50:34.573Z,61.25
2017-08-17T01:51:35.187Z,61.25
2017-08-17T01:52:35.803Z,61.44
2017-08-17T01:53:36.420Z,61.44
2017-08-17T01:54:37.042Z,61.28
2017-08-17T01:55:37.661Z,61.16
2017-08-17T01:56:38.274Z,61.35
2017-08-17T01:57:38.890Z,61.72
2017-08-17T01:58:39.505Z,61.72
2017-08-17T01:59:40.125Z,61.54
2017-08-17T02:00:40.776Z,62.01
2017-08-17T02:01:41.424Z,61.72
2017-08-17T02:02:42.042Z,62.01
2017-08-17T02:03:42.674Z,61.82
2017-08-17T02:04:43.288Z,61.82
2017-08-17T02:05:43.896Z,61.72
2017-08-17T02:06:44.517Z,62.11
2017-08-17T02:07:45.128Z,62.01
2017-08-17T02:08:45.743Z,61.72
2017-08-17T02:09:46.396Z,61.82
2017-08-17T02:10:47.007Z,62.04
2017-08-17T02:11:47.625Z,62.01
2017-08-17T02:12:48.248Z,62.01
2017-08-17T02:13:48.860Z,61.92
2017-08-17T02:14:49.477Z,61.92
2017-08-17T02:15:50.092Z,62.01
2017-08-17T02:16:50.741Z,61.72
2017-08-17T02:17:51.355Z,61.82
2017-08-17T02:18:51.972Z,61.72
2017-08-17T02:19:52.589Z,61.54
2017-08-17T02:20:53.208Z,61.63
2017-08-17T02:21:53.859Z,61.54
2017-08-17T02:22:54.509Z,61.63
2017-08-17T02:23:55.126Z,61.54
2017-08-17T02:24:55.741Z,61.63
2017-08-17T02:25:56.357Z,61.63
2017-08-17T02:26:56.977Z,61.82
2017-08-17T02:27:57.628Z,61.82
2017-08-17T02:28:58.240Z,61.54
2017-08-17T02:29:58.861Z,61.44
2017-08-17T02:30:59.474Z,61.54
2017-08-17T02:32:00.090Z,61.63
2017-08-17T02:33:00.707Z,61.92
2017-08-17T02:34:01.326Z,61.63
2017-08-17T02:35:01.945Z,61.63
2017-08-17T02:36:02.556Z,61.72
2017-08-17T02:37:03.173Z,61.72
2017-08-17T02:38:03.788Z,61.82
2017-08-17T02:39:04.409Z,61.92
2017-08-17T02:40:05.064Z,61.72
2017-08-17T02:41:05.677Z,62.21
2017-08-17T02:42:06.298Z,61.92
2017-08-17T02:43:06.908Z,61.72
2017-08-17T02:44:07.528Z,62.01
2017-08-17T02:45:08.141Z,62.40
2017-08-17T02:46:08.763Z,62.59
2017-08-17T02:47:09.377Z,62.21
2017-08-17T02:48:09.994Z,62.78
2017-08-17T02:49:10.608Z,62.30
2017-08-17T02:50:11.225Z,62.68
2017-08-17T02:51:11.846Z,62.68
2017-08-17T02:52:12.463Z,62.78
2017-08-17T02:53:13.078Z,62.49
2017-08-17T02:54:13.698Z,62.78
2017-08-17T02:55:14.311Z,62.59
2017-08-17T02:56:14.925Z,62.78
2017-08-17T02:57:15.539Z,62.21
2017-08-17T02:58:16.155Z,62.59
2017-08-17T02:59:16.768Z,62.59
2017-08-17T03:00:17.385Z,62.49
2017-08-17T03:01:18.035Z,62.30
2017-08-17T03:02:18.654Z,62.59
2017-08-17T03:03:19.308Z,62.68
2017-08-17T03:04:19.959Z,62.87
2017-08-17T03:05:20.586Z,62.68
2017-08-17T03:06:21.252Z,62.59
2017-08-17T03:07:21.887Z,62.78
2017-08-17T03:08:22.498Z,62.78
2017-08-17T03:09:23.114Z,62.87
2017-08-17T03:10:23.766Z,62.78
2017-08-17T03:11:24.380Z,62.78
2017-08-17T03:12:25.028Z,62.68
2017-08-17T03:13:25.644Z,62.87
2017-08-17T03:14:26.259Z,62.59
2017-08-17T03:15:26.874Z,62.59
2017-08-17T03:16:27.492Z,62.68
2017-08-17T03:17:28.113Z,62.59
2017-08-17T03:18:28.725Z,62.59
2017-08-17T03:19:29.340Z,62.78
2017-08-17T03:20:29.989Z,62.68
2017-08-17T03:21:30.645Z,62.78
2017-08-17T03:22:31.293Z,62.59
2017-08-17T03:23:31.958Z,62.59
2017-08-17T03:24:32.572Z,62.68
2017-08-17T03:25:33.187Z,62.68
2017-08-17T03:26:33.803Z,62.49
2017-08-17T03:27:34.420Z,62.59
2017-08-17T03:28:35.086Z,62.49
2017-08-17T03:29:35.701Z,62.30
2017-08-17T03:30:36.317Z,62.30
2017-08-17T03:31:36.939Z,62.49
2017-08-17T03:32:37.552Z,62.49
2017-08-17T03:33:38.172Z,62.49
2017-08-17T03:34:38.820Z,62.30
2017-08-17T03:35:39.442Z,62.21
2017-08-17T03:36:40.053Z,62.49
2017-08-17T03:37:40.669Z,62.49
2017-08-17T03:38:41.284Z,62.40
2017-08-17T03:39:41.899Z,62.49
2017-08-17T03:40:42.518Z,62.21
2017-08-17T03:41:43.170Z,62.30
2017-08-17T03:42:43.818Z,62.59
2017-08-17T03:43:44.440Z,62.01
2017-08-17T03:44:45.054Z,62.21
2017-08-17T03:45:45.669Z,61.92
2017-08-17T03:46:46.286Z,62.01
2017-08-17T03:47:46.901Z,62.30
2017-08-17T03:48:47.521Z,62.01
2017-08-17T03:49:48.140Z,61.82
2017-08-17T03:50:48.756Z,61.72
2017-08-17T03:51:49.369Z,61.72
2017-08-17T03:52:49.989Z,62.01
2017-08-17T03:53:50.608Z,61.92
2017-08-17T03:54:51.226Z,61.79
2017-08-17T03:55:51.837Z,61.82
2017-08-17T03:56:52.454Z,61.89
2017-08-17T03:57:53.072Z,62.01
2017-08-17T03:58:53.736Z,61.89
2017-08-17T03:59:54.351Z,62.27
2017-08-17T04:00:54.967Z,61.79
2017-08-17T04:01:55.587Z,62.08
2017-08-17T04:02:56.235Z,61.89
2017-08-17T04:03:56.858Z,61.89
2017-08-17T04:04:57.508Z,61.79
2017-08-17T04:05:58.124Z,61.60
2017-08-17T04:06:58.738Z,61.51
2017-08-17T04:07:59.358Z,61.51
2017-08-17T04:09:00.058Z,61.60
2017-08-17T04:10:00.671Z,61.69
2017-08-17T04:11:01.287Z,61.51
2017-08-17T04:12:01.909Z,61.51
2017-08-17T04:13:02.522Z,61.51
2017-08-17T04:14:03.188Z,61.89
2017-08-17T04:15:03.803Z,61.89
2017-08-17T04:16:04.418Z,61.69
2017-08-17T04:17:05.033Z,61.60
2017-08-17T04:18:05.654Z,61.69
2017-08-17T04:19:06.273Z,61.69
2017-08-17T04:20:06.885Z,61.89
2017-08-17T04:21:07.502Z,61.98
2017-08-17T04:22:08.117Z,61.79
2017-08-17T04:23:08.736Z,61.89
2017-08-17T04:24:09.349Z,62.37
2017-08-17T04:25:09.969Z,62.55
2017-08-17T04:26:10.586Z,62.18
2017-08-17T04:27:11.199Z,62.18
2017-08-17T04:28:11.815Z,62.55
2017-08-17T04:29:12.512Z,62.75
2017-08-17T04:30:13.126Z,62.75
2017-08-17T04:31:13.747Z,62.65
2017-08-17T04:32:14.361Z,62.65
2017-08-17T04:33:14.982Z,62.84
2017-08-17T04:34:15.594Z,62.27
2017-08-17T04:35:16.210Z,62.84
2017-08-17T04:36:16.829Z,63.13
2017-08-17T04:37:17.440Z,63.32
2017-08-17T04:38:18.053Z,63.42
2017-08-17T04:39:18.676Z,63.80
2017-08-17T04:40:19.293Z,63.80
2017-08-17T04:41:19.905Z,63.51
2017-08-17T04:42:20.521Z,64.09
2017-08-17T04:43:21.137Z,64.18
2017-08-17T04:44:21.756Z,63.89
2017-08-17T04:45:22.364Z,63.99
2017-08-17T04:46:22.982Z,63.80
2017-08-17T04:47:23.602Z,63.70
2017-08-17T04:48:24.222Z,64.09
2017-08-17T04:49:24.835Z,64.18
2017-08-17T04:50:25.452Z,64.18
2017-08-17T04:51:26.079Z,64.18
2017-08-17T04:52:26.695Z,63.99
2017-08-17T04:53:27.309Z,64.18
2017-08-17T04:54:27.925Z,63.89
2017-08-17T04:55:28.540Z,63.99
2017-08-17T04:56:29.156Z,64.37
2017-08-17T04:57:29.773Z,64.37
2017-08-17T04:58:30.397Z,64.37
2017-08-17T04:59:31.017Z,64.28
2017-08-17T05:00:31.630Z,63.99
2017-08-17T05:01:32.245Z,64.18
2017-08-17T05:02:32.860Z,64.18
2017-08-17T05:03:33.476Z,64.18
2017-08-17T05:04:34.156Z,64.56
2017-08-17T05:05:34.769Z,64.18
2017-08-17T05:06:35.391Z,64.56
2017-08-17T05:07:36.003Z,64.85
2017-08-17T05:08:36.618Z,65.04
2017-08-17T05:09:37.233Z,64.94
2017-08-17T05:10:37.856Z,64.65
2017-08-17T05:11:38.474Z,64.56
2017-08-17T05:12:39.087Z,64.65
2017-08-17T05:13:39.712Z,64.56
2017-08-17T05:14:40.375Z,64.85
2017-08-17T05:15:40.991Z,64.56
2017-08-17T05:16:41.639Z,64.94
2017-08-17T05:17:42.256Z,64.75
2017-08-17T05:18:42.871Z,64.65
2017-08-17T05:19:43.489Z,64.28
2017-08-17T05:20:44.106Z,64.75
2017-08-17T05:21:44.756Z,64.65
2017-08-17T05:22:45.407Z,64.85
2017-08-17T05:23:46.023Z,64.56
2017-08-17T05:24:46.645Z,64.85
2017-08-17T05:25:47.263Z,64.37
2017-08-17T05:26:47.879Z,64.56
2017-08-17T05:27:48.525Z,64.75
2017-08-17T05:28:49.140Z,64.56
2017-08-17T05:29:49.758Z,64.94
2017-08-17T05:30:50.377Z,64.75
2017-08-17T05:31:50.992Z,65.04
2017-08-17T05:32:51.609Z,65.04
2017-08-17T05:33:52.231Z,65.04
2017-08-17T05:34:52.841Z,65.04
2017-08-17T05:35:53.457Z,65.04
2017-08-17T05:36:54.080Z,65.04
2017-08-17T05:37:54.698Z,64.85
2017-08-17T05:38:55.311Z,64.94
2017-08-17T05:39:55.928Z,65.04
2017-08-17T05:40:56.544Z,64.56
2017-08-17T05:41:57.167Z,64.56
2017-08-17T05:42:57.782Z,64.37
2017-08-17T05:43:58.430Z,64.75
2017-08-17T05:44:59.051Z,64.75
2017-08-17T05:45:59.666Z,64.56
2017-08-17T05:47:00.291Z,64.47
2017-08-17T05:48:00.908Z,64.94
2017-08-17T05:49:01.691Z,64.56
2017-08-17T05:50:02.946Z,64.94
2017-08-17T05:51:04.043Z,64.94
2017-08-17T05:52:06.188Z,64.56
2017-08-17T05:53:07.491Z,64.65
2017-08-17T05:54:08.683Z,64.85
2017-08-17T05:55:56.166Z,64.85
2017-08-17T05:56:56.775Z,65.04
2017-08-17T05:57:57.389Z,65.04
2017-08-17T05:58:58.004Z,64.88
2017-08-17T05:59:58.624Z,64.94
2017-08-17T06:00:59.241Z,64.98
2017-08-17T06:01:59.892Z,64.88
2017-08-17T06:03:00.508Z,64.50
2017-08-17T06:04:01.126Z,64.50
2017-08-17T06:05:01.746Z,64.78
2017-08-17T06:06:02.359Z,64.50
2017-08-17T06:07:02.976Z,64.98
2017-08-17T06:08:03.599Z,65.17
2017-08-17T06:09:04.214Z,65.07
2017-08-17T06:10:04.830Z,64.69
2017-08-17T06:11:05.447Z,64.02
2017-08-17T06:12:06.062Z,64.22
2017-08-17T06:13:06.713Z,64.22
2017-08-17T06:14:07.331Z,64.22
2017-08-17T06:15:07.955Z,64.12
2017-08-17T06:16:08.620Z,64.25
2017-08-17T06:17:09.235Z,64.62
2017-08-17T06:18:09.852Z,64.53
2017-08-17T06:19:10.475Z,64.43
2017-08-17T06:20:11.088Z,64.34
2017-08-17T06:21:11.756Z,64.25
2017-08-17T06:22:12.377Z,64.05
2017-08-17T06:23:13.023Z,64.05
2017-08-17T06:24:13.639Z,64.05
2017-08-17T06:25:14.257Z,64.15
2017-08-17T06:26:14.959Z,63.57
2017-08-17T06:27:15.573Z,64.05
2017-08-17T06:28:16.189Z,63.86
2017-08-17T06:29:16.805Z,63.76
2017-08-17T06:30:17.421Z,63.86
2017-08-17T06:31:18.039Z,63.76
2017-08-17T06:32:18.657Z,63.96
2017-08-17T06:33:19.275Z,63.19
2017-08-17T06:34:19.927Z,63.29
2017-08-17T06:35:20.548Z,63.00
2017-08-17T06:36:21.214Z,62.90
2017-08-17T06:37:21.840Z,62.94
2017-08-17T06:38:22.457Z,63.03
2017-08-17T06:39:23.073Z,63.32
2017-08-17T06:40:23.696Z,63.42
2017-08-17T06:41:24.346Z,63.03
2017-08-17T06:42:24.965Z,63.42
2017-08-17T06:43:25.589Z,63.51
2017-08-17T06:44:26.204Z,62.94
2017-08-17T06:45:26.823Z,63.13
2017-08-17T06:46:27.442Z,63.32
2017-08-17T06:47:28.065Z,63.32
2017-08-17T06:48:28.682Z,62.84
2017-08-17T06:49:29.298Z,63.03
2017-08-17T06:50:29.917Z,63.23
2017-08-17T06:51:30.533Z,63.32
2017-08-17T06:52:31.150Z,63.13
2017-08-17T06:53:31.768Z,62.94
2017-08-17T06:54:32.386Z,62.84
2017-08-17T06:55:33.003Z,62.84
2017-08-17T06:56:33.622Z,62.37
2017-08-17T06:57:34.244Z,62.37
2017-08-17T06:58:34.864Z,62.84
2017-08-17T06:59:35.481Z,62.84
2017-08-17T07:00:36.107Z,62.37
2017-08-17T07:01:36.723Z,62.55
2017-08-17T07:02:37.340Z,62.65
2017-08-17T07:03:37.959Z,62.68
2017-08-17T07:04:38.586Z,62.65
2017-08-17T07:05:39.219Z,61.91
2017-08-17T07:06:39.863Z,61.91
2017-08-17T07:07:40.477Z,61.72
2017-08-17T07:08:41.096Z,61.91
2017-08-17T07:09:41.716Z,62.11
2017-08-17T07:10:42.333Z,61.72
2017-08-17T07:11:42.951Z,61.63
2017-08-17T07:12:43.573Z,61.63
2017-08-17T07:13:44.222Z,61.82
2017-08-17T07:14:44.841Z,61.72
2017-08-17T07:15:45.459Z,61.72
2017-08-17T07:16:46.078Z,61.25
2017-08-17T07:17:46.696Z,61.28
2017-08-17T07:18:47.319Z,61.63
2017-08-17T07:19:47.935Z,61.63
2017-08-17T07:20:48.555Z,61.54
2017-08-17T07:21:49.223Z,61.54
2017-08-17T07:22:49.843Z,61.47
2017-08-17T07:23:50.469Z,61.57
2017-08-17T07:24:51.086Z,61.08
2017-08-17T07:25:51.703Z,61.66
2017-08-17T07:26:52.322Z,61.57
2017-08-17T07:27:52.941Z,61.47
2017-08-17T07:28:53.564Z,61.47
2017-08-17T07:29:54.183Z,61.66
2017-08-17T07:30:54.806Z,61.57
2017-08-17T07:31:55.423Z,60.99
2017-08-17T07:32:56.041Z,61.18
2017-08-17T07:33:56.668Z,60.99
2017-08-17T07:34:57.284Z,61.47
2017-08-17T07:35:57.906Z,60.89
2017-08-17T07:36:58.529Z,61.47
2017-08-17T07:37:59.146Z,60.64
2017-08-17T07:38:59.768Z,60.80
2017-08-17T07:40:00.385Z,61.18
2017-08-17T07:41:01.042Z,60.64
2017-08-17T07:42:01.663Z,60.93
2017-08-17T07:43:02.278Z,61.11
2017-08-17T07:44:02.897Z,61.08
2017-08-17T07:45:03.520Z,60.89
2017-08-17T07:46:04.138Z,60.93
2017-08-17T07:47:04.758Z,61.40
2017-08-17T07:48:05.381Z,61.40
2017-08-17T07:49:05.998Z,61.21
2017-08-17T07:50:06.657Z,61.31
2017-08-17T07:51:07.273Z,61.21
2017-08-17T07:52:07.894Z,60.93
2017-08-17T07:53:08.518Z,60.93
2017-08-17T07:54:09.136Z,60.64
2017-08-17T07:55:09.756Z,60.83
2017-08-17T07:56:10.377Z,60.54
2017-08-17T07:57:11.032Z,60.73
2017-08-17T07:58:11.650Z,60.64
2017-08-17T07:59:12.272Z,60.44
2017-08-17T08:00:12.921Z,60.64
2017-08-17T08:01:13.542Z,60.25
2017-08-17T08:02:14.196Z,60.64
2017-08-17T08:03:14.817Z,60.64
2017-08-17T08:04:15.438Z,60.83
2017-08-17T08:05:16.057Z,60.44
2017-08-17T08:06:16.709Z,60.67
2017-08-17T08:07:17.342Z,60.57
2017-08-17T08:08:17.997Z,60.76
2017-08-17T08:09:18.608Z,60.96
2017-08-17T08:10:19.229Z,60.57
2017-08-17T08:11:19.882Z,60.28
2017-08-17T08:12:20.502Z,60.86
2017-08-17T08:13:21.121Z,61.05
2017-08-17T08:14:21.781Z,60.47
2017-08-17T08:15:22.433Z,60.67
2017-08-17T08:16:23.047Z,60.47
2017-08-17T08:17:23.669Z,60.99
2017-08-17T08:18:24.289Z,60.89
2017-08-17T08:19:24.913Z,60.22
2017-08-17T08:20:25.529Z,60.12
2017-08-17T08:21:26.148Z,60.60
2017-08-17T08:22:26.768Z,60.12
2017-08-17T08:23:27.394Z,59.83
2017-08-17T08:24:28.050Z,60.03
2017-08-17T08:25:28.700Z,60.41
2017-08-17T08:26:29.320Z,60.22
2017-08-17T08:27:29.951Z,60.60
2017-08-17T08:28:30.563Z,60.50
2017-08-17T08:29:31.189Z,60.79
2017-08-17T08:30:31.806Z,60.89
2017-08-17T08:31:32.430Z,60.41
2017-08-17T08:32:33.349Z,60.03
2017-08-17T08:33:33.976Z,59.93
2017-08-17T08:34:34.593Z,60.31
2017-08-17T08:35:35.219Z,60.53
2017-08-17T08:36:35.835Z,60.53
2017-08-17T08:37:36.487Z,60.53
2017-08-17T08:38:37.112Z,60.05
2017-08-17T08:39:37.732Z,59.96
2017-08-17T08:40:38.357Z,60.63
2017-08-17T08:41:38.974Z,60.35
2017-08-17T08:42:39.845Z,60.15
2017-08-17T08:43:40.467Z,59.38
2017-08-17T08:44:41.092Z,59.19
2017-08-17T08:45:41.716Z,59.09
2017-08-17T08:46:42.338Z,58.91
2017-08-17T08:47:42.958Z,59.48
2017-08-17T08:48:43.577Z,59.38
2017-08-17T08:49:44.198Z,59.86
2017-08-17T08:50:44.824Z,59.77
2017-08-17T08:51:45.440Z,59.48
2017-08-17T08:52:46.062Z,59.00
2017-08-17T08:53:46.716Z,59.38
2017-08-17T08:54:47.342Z,59.77
2017-08-17T08:55:47.960Z,59.86
2017-08-17T08:56:48.581Z,59.96
2017-08-17T08:57:49.202Z,60.25
2017-08-17T08:58:49.829Z,59.32
2017-08-17T08:59:50.448Z,59.61
2017-08-17T09:00:51.072Z,58.94
2017-08-17T09:01:51.689Z,58.42
2017-08-17T09:02:52.311Z,58.84
2017-08-17T09:03:52.935Z,59.12
2017-08-17T09:04:53.560Z,58.74
2017-08-17T09:05:54.177Z,59.19
2017-08-17T09:06:54.805Z,59.61
2017-08-17T09:07:55.428Z,59.61
2017-08-17T09:08:56.050Z,59.41
2017-08-17T09:09:56.666Z,58.74
2017-08-17T09:10:57.288Z,58.87
2017-08-17T09:11:57.922Z,58.48
2017-08-17T09:12:58.534Z,58.26
2017-08-17T09:13:59.154Z,58.36
2017-08-17T09:14:59.813Z,59.25
2017-08-17T09:16:00.429Z,58.48
2017-08-17T09:17:01.056Z,58.10
2017-08-17T09:18:01.700Z,58.77
2017-08-17T09:19:02.307Z,58.48
2017-08-17T09:20:02.954Z,58.77
2017-08-17T09:21:03.580Z,57.52
2017-08-17T09:22:04.202Z,57.52
2017-08-17T09:23:04.879Z,57.62
2017-08-17T09:24:05.493Z,57.71
2017-08-17T09:25:06.115Z,57.62
2017-08-17T09:26:06.771Z,58.20
2017-08-17T09:27:07.398Z,58.00
2017-08-17T09:28:08.016Z,58.20
2017-08-17T09:29:08.640Z,58.58
2017-08-17T09:30:09.264Z,58.13
2017-08-17T09:31:09.887Z,57.62
2017-08-17T09:32:10.503Z,57.71
2017-08-17T09:33:11.166Z,57.33
2017-08-17T09:34:11.785Z,57.84
2017-08-17T09:35:12.407Z,58.03
2017-08-17T09:36:13.033Z,57.62
2017-08-17T09:37:13.658Z,57.36
2017-08-17T09:38:14.333Z,56.95
2017-08-17T09:39:14.959Z,56.56
2017-08-17T09:40:15.580Z,56.98
2017-08-17T09:41:16.208Z,57.07
2017-08-17T09:42:16.831Z,56.98
2017-08-17T09:43:17.701Z,57.75
2017-08-17T09:44:18.325Z,56.98
2017-08-17T09:45:18.952Z,57.36
2017-08-17T09:46:19.571Z,56.98
2017-08-17T09:47:20.231Z,57.48
2017-08-17T09:48:20.848Z,57.20
2017-08-17T09:49:21.469Z,57.03
2017-08-17T09:50:22.102Z,55.11
2017-08-17T09:51:22.724Z,53.28
2017-08-17T09:52:23.340Z,53.74
2017-08-17T09:53:23.964Z,54.41
2017-08-17T09:54:24.592Z,54.12
2017-08-17T09:55:25.213Z,54.41
2017-08-17T09:56:25.840Z,54.31
2017-08-17T09:57:26.466Z,54.12
2017-08-17T09:58:27.386Z,54.12
2017-08-17T09:59:28.008Z,54.22
2017-08-17T10:00:28.630Z,55.27
2017-08-17T10:01:29.251Z,54.14
2017-08-17T10:02:29.876Z,53.09
2017-08-17T10:03:30.498Z,53.57
2017-08-17T10:04:31.122Z,53.38
2017-08-17T10:05:31.745Z,52.80
2017-08-17T10:06:32.367Z,53.76
2017-08-17T10:07:32.993Z,51.55
2017-08-17T10:08:33.663Z,51.74
2017-08-17T10:09:34.289Z,52.80
2017-08-17T10:10:34.911Z,52.22
2017-08-17T10:11:35.533Z,51.84
2017-08-17T10:12:36.155Z,51.76
2017-08-17T10:13:36.777Z,49.74
2017-08-17T10:14:37.403Z,49.27
2017-08-17T10:15:38.023Z,49.36
2017-08-17T10:16:38.645Z,49.17
2017-08-17T10:17:39.267Z,48.30
2017-08-17T10:18:39.938Z,47.15
2017-08-17T10:19:40.562Z,47.92
2017-08-17T10:20:41.184Z,47.92
2017-08-17T10:21:41.806Z,48.11
2017-08-17T10:22:42.429Z,48.79
2017-08-17T10:23:43.104Z,48.49
2017-08-17T10:24:43.727Z,48.71
2017-08-17T10:25:44.352Z,49.10
2017-08-17T10:26:44.973Z,48.33
2017-08-17T10:27:45.596Z,47.36
2017-08-17T10:28:46.223Z,46.88
2017-08-17T10:29:46.842Z,48.03
2017-08-17T10:30:47.463Z,48.03
2017-08-17T10:31:48.085Z,47.85
2017-08-17T10:32:48.709Z,48.23
2017-08-17T10:33:49.587Z,47.97
2017-08-17T10:34:50.215Z,47.67
2017-08-17T10:35:50.835Z,48.16
2017-08-17T10:36:51.458Z,48.93
2017-08-17T10:37:52.083Z,49.05
2017-08-17T10:38:52.705Z,48.86
2017-08-17T10:39:53.329Z,47.99
2017-08-17T10:40:53.956Z,47.70
2017-08-17T10:41:54.579Z,47.03
2017-08-17T10:42:55.202Z,46.25
2017-08-17T10:43:55.874Z,46.55
2017-08-17T10:44:56.501Z,45.87
2017-08-17T10:45:57.123Z,46.35
2017-08-17T10:46:57.751Z,46.25
2017-08-17T10:47:58.372Z,45.48
2017-08-17T10:48:59.001Z,45.29
2017-08-17T10:49:59.632Z,46.35
2017-08-17T10:51:00.252Z,46.25
2017-08-17T10:52:00.875Z,46.15
2017-08-17T10:53:01.532Z,46.25
2017-08-17T10:54:02.163Z,46.37
2017-08-17T10:55:02.789Z,46.37
2017-08-17T10:56:03.451Z,45.51
2017-08-17T10:57:04.078Z,45.20
2017-08-17T10:58:04.705Z,44.90
2017-08-17T10:59:05.329Z,45.68
2017-08-17T11:00:05.954Z,45.39
2017-08-17T11:01:06.579Z,45.39
2017-08-17T11:02:07.203Z,45.58
2017-08-17T11:03:07.834Z,45.68
2017-08-17T11:04:08.544Z,46.55
2017-08-17T11:05:09.169Z,45.58
2017-08-17T11:06:09.798Z,45.00
2017-08-17T11:07:10.422Z,44.59
2017-08-17T11:08:11.048Z,45.07
2017-08-17T11:09:11.674Z,45.65
2017-08-17T11:10:12.298Z,45.94
2017-08-17T11:11:12.956Z,47.12
2017-08-17T11:12:13.584Z,46.55
2017-08-17T11:13:14.208Z,45.39
2017-08-17T11:14:14.843Z,45.48
2017-08-17T11:15:15.461Z,45.77
2017-08-17T11:16:16.087Z,46.55
2017-08-17T11:17:16.718Z,46.25
2017-08-17T11:18:17.340Z,45.51
2017-08-17T11:19:17.996Z,44.93
2017-08-17T11:20:18.620Z,45.10
2017-08-17T11:21:19.248Z,45.79
2017-08-17T11:22:19.908Z,46.28
2017-08-17T11:23:20.532Z,45.70
2017-08-17T11:24:21.158Z,44.83
2017-08-17T11:25:21.783Z,44.73
2017-08-17T11:26:22.408Z,45.12
2017-08-17T11:27:23.034Z,45.53
2017-08-17T11:28:23.691Z,44.95
2017-08-17T11:29:24.318Z,45.04
2017-08-17T11:30:24.943Z,44.76
2017-08-17T11:31:25.573Z,45.24
2017-08-17T11:32:26.195Z,44.76
2017-08-17T11:33:26.852Z,44.85
2017-08-17T11:34:27.477Z,44.66
2017-08-17T11:35:28.109Z,45.04
2017-08-17T11:36:28.771Z,44.18
2017-08-17T11:37:29.398Z,44.66
2017-08-17T11:38:30.025Z,45.14
2017-08-17T11:39:30.649Z,44.85
2017-08-17T11:40:31.280Z,44.01
2017-08-17T11:41:31.903Z,43.43
2017-08-17T11:42:32.536Z,43.81
2017-08-17T11:43:33.162Z,44.49
2017-08-17T11:44:33.787Z,44.10
2017-08-17T11:45:34.414Z,43.91
2017-08-17T11:46:35.040Z,41.02
2017-08-17T11:47:35.663Z,41.50
2017-08-17T11:48:36.290Z,42.08
2017-08-17T11:49:36.916Z,42.08
2017-08-17T11:50:37.542Z,42.66
2017-08-17T11:51:38.200Z,42.85
2017-08-17T11:52:38.826Z,43.26
2017-08-17T11:53:39.452Z,43.54
2017-08-17T11:54:40.079Z,43.06
2017-08-17T11:55:40.707Z,43.08
2017-08-17T11:56:41.331Z,42.70
2017-08-17T11:57:41.959Z,42.41
2017-08-17T11:58:42.586Z,42.60
2017-08-17T11:59:43.214Z,41.35
2017-08-17T12:00:43.842Z,41.63
2017-08-17T12:01:44.473Z,41.44
2017-08-17T12:02:45.103Z,40.94
2017-08-17T12:03:45.726Z,41.42
2017-08-17T12:04:46.355Z,41.42
2017-08-17T12:05:46.984Z,41.81
2017-08-17T12:06:47.613Z,41.83
2017-08-17T12:07:48.241Z,42.12
2017-08-17T12:08:48.866Z,41.66
2017-08-17T12:09:49.492Z,41.08
2017-08-17T12:10:50.116Z,41.17
2017-08-17T12:11:50.749Z,41.27
2017-08-17T12:12:51.373Z,41.27
2017-08-17T12:13:52.003Z,40.98
2017-08-17T12:14:52.929Z,40.13
2017-08-17T12:15:53.554Z,38.95
2017-08-17T12:16:54.179Z,38.66
2017-08-17T12:17:54.811Z,38.35
2017-08-17T12:18:55.436Z,38.93
2017-08-17T12:19:56.363Z,38.54
2017-08-17T12:20:56.997Z,38.25
2017-08-17T12:21:57.622Z,38.74
2017-08-17T12:22:58.283Z,38.64
2017-08-17T12:23:58.909Z,38.25
2017-08-17T12:24:59.534Z,38.74
2017-08-17T12:26:00.163Z,38.74
2017-08-17T12:27:00.791Z,38.74
2017-08-17T12:28:01.418Z,38.45
2017-08-17T12:29:02.045Z,38.45
2017-08-17T12:30:02.728Z,38.56
2017-08-17T12:31:03.350Z,38.18
2017-08-17T12:32:03.976Z,37.79
2017-08-17T12:33:04.602Z,37.79
2017-08-17T12:34:05.229Z,37.79
2017-08-17T12:35:05.856Z,36.72
2017-08-17T12:36:06.489Z,35.84
2017-08-17T12:37:07.113Z,35.94
2017-08-17T12:38:07.749Z,36.59
2017-08-17T12:39:08.404Z,37.95
2017-08-17T12:40:09.027Z,38.74
2017-08-17T12:41:09.653Z,38.74
2017-08-17T12:42:10.283Z,38.74
2017-08-17T12:43:10.909Z,38.85
2017-08-17T12:44:11.536Z,38.28
2017-08-17T12:45:12.195Z,38.37
2017-08-17T12:46:12.826Z,38.18
2017-08-17T12:47:13.447Z,36.90
2017-08-17T12:48:14.072Z,37.38
2017-08-17T12:49:14.699Z,38.54
2017-08-17T12:50:15.627Z,38.76
2017-08-17T12:51:16.251Z,38.46
2017-08-17T12:52:16.888Z,38.18
2017-08-17T12:53:17.547Z,38.08
2017-08-17T12:54:18.179Z,38.39
2017-08-17T12:55:19.106Z,38.39
2017-08-17T12:56:19.731Z,38.31
2017-08-17T12:57:20.360Z,38.02
2017-08-17T12:58:20.986Z,37.54
2017-08-17T12:59:21.633Z,36.76
2017-08-17T13:00:22.541Z,36.65
2017-08-17T13:01:23.175Z,37.23